sensor_id;sensor_type;location;lat;lon;timestamp;P1;durP1;ratioP1;P2;durP2;ratioP2
6378;SDS011;3222;48.858;10.128;2023-06-19T00:00:40;6.75;;;5.53;;
6378;SDS011;3222;48.858;10.128;2023-06-19T00:03:07;6.13;;;5.40;;
6378;SDS011;3222;48.858;10.128;2023-06-19T00:05:33;5.47;;;5.07;;
6378;SDS011;3222;48.858;10.128;2023-06-19T00:07:59;5.25;;;4.75;;
6378;SDS011;3222;48.858;10.128;2023-06-19T00:10:25;5.90;;;5.35;;
6378;SDS011;3222;48.858;10.128;2023-06-19T00:12:51;8.10;;;5.70;;
6378;SDS011;3222;48.858;10.128;2023-06-19T00:15:17;6.68;;;5.88;;
6378;SDS011;3222;48.858;10.128;2023-06-19T00:17:43;5.85;;;5.18;;
6378;SDS011;3222;48.858;10.128;2023-06-19T00:20:09;5.95;;;5.00;;
6378;SDS011;3222;48.858;10.128;2023-06-19T00:22:35;6.55;;;5.95;;
6378;SDS011;3222;48.858;10.128;2023-06-19T00:25:00;7.13;;;5.45;;
6378;SDS011;3222;48.858;10.128;2023-06-19T00:27:26;5.97;;;5.47;;
6378;SDS011;3222;48.858;10.128;2023-06-19T00:29:53;6.93;;;5.53;;
6378;SDS011;3222;48.858;10.128;2023-06-19T00:32:19;5.95;;;5.38;;
6378;SDS011;3222;48.858;10.128;2023-06-19T00:34:45;6.47;;;4.75;;
6378;SDS011;3222;48.858;10.128;2023-06-19T00:37:10;6.22;;;5.65;;
6378;SDS011;3222;48.858;10.128;2023-06-19T00:39:38;6.47;;;5.88;;
6378;SDS011;3222;48.858;10.128;2023-06-19T00:42:05;6.50;;;4.85;;
6378;SDS011;3222;48.858;10.128;2023-06-19T00:44:32;5.68;;;5.18;;
6378;SDS011;3222;48.858;10.128;2023-06-19T00:46:58;6.10;;;5.22;;
6378;SDS011;3222;48.858;10.128;2023-06-19T00:49:26;7.57;;;5.43;;
6378;SDS011;3222;48.858;10.128;2023-06-19T00:51:53;9.20;;;5.65;;
6378;SDS011;3222;48.858;10.128;2023-06-19T00:54:19;6.55;;;5.85;;
6378;SDS011;3222;48.858;10.128;2023-06-19T00:56:46;6.45;;;5.85;;
6378;SDS011;3222;48.858;10.128;2023-06-19T00:59:14;6.25;;;5.65;;
6378;SDS011;3222;48.858;10.128;2023-06-19T01:01:42;6.50;;;5.90;;
6378;SDS011;3222;48.858;10.128;2023-06-19T01:04:09;6.50;;;5.82;;
6378;SDS011;3222;48.858;10.128;2023-06-19T01:07:18;9.73;;;6.20;;
6378;SDS011;3222;48.858;10.128;2023-06-19T01:09:31;6.55;;;5.75;;
6378;SDS011;3222;48.858;10.128;2023-06-19T01:12:04;8.75;;;5.78;;
6378;SDS011;3222;48.858;10.128;2023-06-19T01:14:38;5.97;;;5.47;;
6378;SDS011;3222;48.858;10.128;2023-06-19T01:17:09;6.38;;;5.60;;
6378;SDS011;3222;48.858;10.128;2023-06-19T01:19:35;5.90;;;5.40;;
6378;SDS011;3222;48.858;10.128;2023-06-19T01:22:03;6.45;;;5.85;;
6378;SDS011;3222;48.858;10.128;2023-06-19T01:24:30;6.20;;;5.60;;
6378;SDS011;3222;48.858;10.128;2023-06-19T01:26:55;7.00;;;5.68;;
6378;SDS011;3222;48.858;10.128;2023-06-19T01:29:22;6.00;;;5.50;;
6378;SDS011;3222;48.858;10.128;2023-06-19T01:31:50;7.20;;;5.45;;
6378;SDS011;3222;48.858;10.128;2023-06-19T01:34:22;5.97;;;5.28;;
6378;SDS011;3222;48.858;10.128;2023-06-19T01:36:52;6.97;;;5.68;;
6378;SDS011;3222;48.858;10.128;2023-06-19T01:39:22;6.18;;;5.60;;
6378;SDS011;3222;48.858;10.128;2023-06-19T01:41:49;6.70;;;5.85;;
6378;SDS011;3222;48.858;10.128;2023-06-19T01:44:15;7.00;;;5.72;;
6378;SDS011;3222;48.858;10.128;2023-06-19T01:46:47;6.00;;;5.40;;
6378;SDS011;3222;48.858;10.128;2023-06-19T01:49:14;5.93;;;5.40;;
6378;SDS011;3222;48.858;10.128;2023-06-19T01:51:40;5.78;;;5.28;;
6378;SDS011;3222;48.858;10.128;2023-06-19T01:54:06;5.68;;;5.18;;
6378;SDS011;3222;48.858;10.128;2023-06-19T01:56:32;6.43;;;5.47;;
6378;SDS011;3222;48.858;10.128;2023-06-19T01:58:59;9.73;;;5.75;;
6378;SDS011;3222;48.858;10.128;2023-06-19T02:01:24;5.82;;;5.25;;
6378;SDS011;3222;48.858;10.128;2023-06-19T02:03:50;5.75;;;5.00;;
6378;SDS011;3222;48.858;10.128;2023-06-19T02:06:17;5.85;;;5.25;;
6378;SDS011;3222;48.858;10.128;2023-06-19T02:08:43;6.05;;;5.50;;
6378;SDS011;3222;48.858;10.128;2023-06-19T02:11:10;7.80;;;6.05;;
6378;SDS011;3222;48.858;10.128;2023-06-19T02:13:36;9.55;;;5.43;;
6378;SDS011;3222;48.858;10.128;2023-06-19T02:16:01;6.38;;;5.78;;
6378;SDS011;3222;48.858;10.128;2023-06-19T02:18:27;7.05;;;5.82;;
6378;SDS011;3222;48.858;10.128;2023-06-19T02:20:53;5.90;;;5.38;;
6378;SDS011;3222;48.858;10.128;2023-06-19T02:23:20;7.57;;;5.47;;
6378;SDS011;3222;48.858;10.128;2023-06-19T02:25:46;8.80;;;5.75;;
6378;SDS011;3222;48.858;10.128;2023-06-19T02:28:12;6.18;;;5.57;;
6378;SDS011;3222;48.858;10.128;2023-06-19T02:30:38;6.15;;;5.65;;
6378;SDS011;3222;48.858;10.128;2023-06-19T02:33:04;7.18;;;5.78;;
6378;SDS011;3222;48.858;10.128;2023-06-19T02:35:30;6.18;;;5.60;;
6378;SDS011;3222;48.858;10.128;2023-06-19T02:37:55;7.70;;;5.97;;
6378;SDS011;3222;48.858;10.128;2023-06-19T02:40:21;5.55;;;5.05;;
6378;SDS011;3222;48.858;10.128;2023-06-19T02:42:47;5.57;;;5.03;;
6378;SDS011;3222;48.858;10.128;2023-06-19T02:45:13;6.88;;;5.97;;
6378;SDS011;3222;48.858;10.128;2023-06-19T02:47:40;6.10;;;5.60;;
6378;SDS011;3222;48.858;10.128;2023-06-19T02:50:06;6.15;;;5.22;;
6378;SDS011;3222;48.858;10.128;2023-06-19T02:52:34;6.53;;;5.93;;
6378;SDS011;3222;48.858;10.128;2023-06-19T02:55:01;7.13;;;5.63;;
6378;SDS011;3222;48.858;10.128;2023-06-19T02:57:28;6.40;;;5.72;;
6378;SDS011;3222;48.858;10.128;2023-06-19T02:59:54;5.90;;;5.40;;
6378;SDS011;3222;48.858;10.128;2023-06-19T03:02:19;8.55;;;5.68;;
6378;SDS011;3222;48.858;10.128;2023-06-19T03:04:46;5.82;;;5.30;;
6378;SDS011;3222;48.858;10.128;2023-06-19T03:07:12;5.78;;;5.28;;
6378;SDS011;3222;48.858;10.128;2023-06-19T03:09:41;6.43;;;5.45;;
6378;SDS011;3222;48.858;10.128;2023-06-19T03:12:08;5.90;;;5.07;;
6378;SDS011;3222;48.858;10.128;2023-06-19T03:14:34;5.85;;;5.07;;
6378;SDS011;3222;48.858;10.128;2023-06-19T03:17:00;6.32;;;5.45;;
6378;SDS011;3222;48.858;10.128;2023-06-19T03:19:27;5.20;;;4.43;;
6378;SDS011;3222;48.858;10.128;2023-06-19T03:21:53;5.00;;;4.60;;
6378;SDS011;3222;48.858;10.128;2023-06-19T03:24:19;5.15;;;4.47;;
6378;SDS011;3222;48.858;10.128;2023-06-19T03:26:46;5.68;;;5.18;;
6378;SDS011;3222;48.858;10.128;2023-06-19T03:29:12;5.22;;;4.68;;
6378;SDS011;3222;48.858;10.128;2023-06-19T03:31:50;5.25;;;4.72;;
6378;SDS011;3222;48.858;10.128;2023-06-19T03:34:17;4.63;;;4.22;;
6378;SDS011;3222;48.858;10.128;2023-06-19T03:36:43;4.57;;;4.22;;
6378;SDS011;3222;48.858;10.128;2023-06-19T03:39:09;5.00;;;4.60;;
6378;SDS011;3222;48.858;10.128;2023-06-19T03:41:36;4.63;;;4.18;;
6378;SDS011;3222;48.858;10.128;2023-06-19T03:44:03;4.70;;;4.30;;
6378;SDS011;3222;48.858;10.128;2023-06-19T03:46:29;4.63;;;4.05;;
6378;SDS011;3222;48.858;10.128;2023-06-19T03:48:55;4.80;;;4.03;;
6378;SDS011;3222;48.858;10.128;2023-06-19T03:51:21;4.60;;;4.07;;
6378;SDS011;3222;48.858;10.128;2023-06-19T03:53:47;4.40;;;4.00;;
6378;SDS011;3222;48.858;10.128;2023-06-19T03:56:16;5.72;;;4.10;;
6378;SDS011;3222;48.858;10.128;2023-06-19T03:58:42;4.78;;;4.38;;
6378;SDS011;3222;48.858;10.128;2023-06-19T04:01:08;4.75;;;4.13;;
6378;SDS011;3222;48.858;10.128;2023-06-19T04:03:34;5.13;;;4.60;;
6378;SDS011;3222;48.858;10.128;2023-06-19T04:06:01;5.38;;;4.30;;
6378;SDS011;3222;48.858;10.128;2023-06-19T04:08:26;6.25;;;4.78;;
6378;SDS011;3222;48.858;10.128;2023-06-19T04:10:53;4.93;;;4.50;;
6378;SDS011;3222;48.858;10.128;2023-06-19T04:13:19;4.68;;;4.07;;
6378;SDS011;3222;48.858;10.128;2023-06-19T04:15:46;5.25;;;4.75;;
6378;SDS011;3222;48.858;10.128;2023-06-19T04:18:12;4.80;;;4.40;;
6378;SDS011;3222;48.858;10.128;2023-06-19T04:20:38;5.43;;;4.93;;
6378;SDS011;3222;48.858;10.128;2023-06-19T04:23:05;5.10;;;4.65;;
6378;SDS011;3222;48.858;10.128;2023-06-19T04:25:31;5.47;;;4.97;;
6378;SDS011;3222;48.858;10.128;2023-06-19T04:27:57;5.05;;;4.47;;
6378;SDS011;3222;48.858;10.128;2023-06-19T04:30:22;4.70;;;4.22;;
6378;SDS011;3222;48.858;10.128;2023-06-19T04:32:48;4.88;;;4.45;;
6378;SDS011;3222;48.858;10.128;2023-06-19T04:35:14;5.40;;;4.50;;
6378;SDS011;3222;48.858;10.128;2023-06-19T04:37:40;4.80;;;4.40;;
6378;SDS011;3222;48.858;10.128;2023-06-19T04:40:06;5.22;;;4.82;;
6378;SDS011;3222;48.858;10.128;2023-06-19T04:42:33;6.55;;;5.05;;
6378;SDS011;3222;48.858;10.128;2023-06-19T04:44:58;8.20;;;5.40;;
6378;SDS011;3222;48.858;10.128;2023-06-19T04:47:25;5.72;;;4.72;;
6378;SDS011;3222;48.858;10.128;2023-06-19T04:49:50;5.50;;;5.00;;
6378;SDS011;3222;48.858;10.128;2023-06-19T04:52:16;4.95;;;4.50;;
6378;SDS011;3222;48.858;10.128;2023-06-19T04:54:43;7.88;;;4.82;;
6378;SDS011;3222;48.858;10.128;2023-06-19T04:57:09;4.53;;;4.13;;
6378;SDS011;3222;48.858;10.128;2023-06-19T04:59:35;6.03;;;4.53;;
6378;SDS011;3222;48.858;10.128;2023-06-19T05:02:01;8.52;;;4.75;;
6378;SDS011;3222;48.858;10.128;2023-06-19T05:04:27;5.32;;;4.25;;
6378;SDS011;3222;48.858;10.128;2023-06-19T05:06:57;5.30;;;4.35;;
6378;SDS011;3222;48.858;10.128;2023-06-19T05:09:24;4.82;;;4.43;;
6378;SDS011;3222;48.858;10.128;2023-06-19T05:11:50;7.28;;;4.60;;
6378;SDS011;3222;48.858;10.128;2023-06-19T05:14:16;4.95;;;4.55;;
6378;SDS011;3222;48.858;10.128;2023-06-19T05:16:43;5.50;;;4.28;;
6378;SDS011;3222;48.858;10.128;2023-06-19T05:19:09;3.95;;;3.65;;
6378;SDS011;3222;48.858;10.128;2023-06-19T05:21:35;4.05;;;3.75;;
6378;SDS011;3222;48.858;10.128;2023-06-19T05:24:01;5.35;;;3.75;;
6378;SDS011;3222;48.858;10.128;2023-06-19T05:26:27;7.15;;;3.78;;
6378;SDS011;3222;48.858;10.128;2023-06-19T05:28:53;4.57;;;4.20;;
6378;SDS011;3222;48.858;10.128;2023-06-19T05:31:19;4.77;;;4.37;;
6378;SDS011;3222;48.858;10.128;2023-06-19T05:33:44;4.47;;;4.05;;
6378;SDS011;3222;48.858;10.128;2023-06-19T05:36:10;4.25;;;3.92;;
6378;SDS011;3222;48.858;10.128;2023-06-19T05:38:36;7.50;;;3.75;;
6378;SDS011;3222;48.858;10.128;2023-06-19T05:41:02;4.43;;;4.05;;
6378;SDS011;3222;48.858;10.128;2023-06-19T05:43:28;4.90;;;3.25;;
6378;SDS011;3222;48.858;10.128;2023-06-19T05:45:54;3.80;;;3.50;;
6378;SDS011;3222;48.858;10.128;2023-06-19T05:48:29;4.00;;;3.60;;
6378;SDS011;3222;48.858;10.128;2023-06-19T05:50:55;4.05;;;3.58;;
6378;SDS011;3222;48.858;10.128;2023-06-19T05:53:20;4.15;;;3.85;;
6378;SDS011;3222;48.858;10.128;2023-06-19T05:55:46;4.28;;;3.88;;
6378;SDS011;3222;48.858;10.128;2023-06-19T05:58:12;8.13;;;3.90;;
6378;SDS011;3222;48.858;10.128;2023-06-19T06:00:38;4.20;;;3.72;;
6378;SDS011;3222;48.858;10.128;2023-06-19T06:03:04;6.18;;;3.83;;
6378;SDS011;3222;48.858;10.128;2023-06-19T06:05:30;5.15;;;4.68;;
6378;SDS011;3222;48.858;10.128;2023-06-19T06:07:55;5.38;;;4.25;;
6378;SDS011;3222;48.858;10.128;2023-06-19T06:10:22;7.18;;;4.57;;
6378;SDS011;3222;48.858;10.128;2023-06-19T06:12:49;5.80;;;5.00;;
6378;SDS011;3222;48.858;10.128;2023-06-19T06:15:15;4.63;;;4.18;;
6378;SDS011;3222;48.858;10.128;2023-06-19T06:17:41;3.97;;;3.63;;
6378;SDS011;3222;48.858;10.128;2023-06-19T06:20:07;5.55;;;3.88;;
6378;SDS011;3222;48.858;10.128;2023-06-19T06:22:36;4.68;;;3.78;;
6378;SDS011;3222;48.858;10.128;2023-06-19T06:25:03;5.10;;;3.63;;
6378;SDS011;3222;48.858;10.128;2023-06-19T06:27:29;4.57;;;4.18;;
6378;SDS011;3222;48.858;10.128;2023-06-19T06:29:55;3.72;;;3.15;;
6378;SDS011;3222;48.858;10.128;2023-06-19T06:32:21;3.55;;;3.25;;
6378;SDS011;3222;48.858;10.128;2023-06-19T06:34:47;3.80;;;3.50;;
6378;SDS011;3222;48.858;10.128;2023-06-19T06:37:13;3.42;;;3.15;;
6378;SDS011;3222;48.858;10.128;2023-06-19T06:39:38;3.17;;;2.92;;
6378;SDS011;3222;48.858;10.128;2023-06-19T06:42:04;4.38;;;3.25;;
6378;SDS011;3222;48.858;10.128;2023-06-19T06:44:30;3.35;;;3.03;;
6378;SDS011;3222;48.858;10.128;2023-06-19T06:46:56;4.18;;;3.00;;
6378;SDS011;3222;48.858;10.128;2023-06-19T06:49:22;3.80;;;3.08;;
6378;SDS011;3222;48.858;10.128;2023-06-19T06:51:48;4.07;;;3.03;;
6378;SDS011;3222;48.858;10.128;2023-06-19T06:54:13;3.47;;;3.17;;
6378;SDS011;3222;48.858;10.128;2023-06-19T06:56:39;2.97;;;2.72;;
6378;SDS011;3222;48.858;10.128;2023-06-19T06:59:05;2.90;;;2.60;;
6378;SDS011;3222;48.858;10.128;2023-06-19T07:01:30;3.28;;;3.00;;
6378;SDS011;3222;48.858;10.128;2023-06-19T07:03:56;2.80;;;2.60;;
6378;SDS011;3222;48.858;10.128;2023-06-19T07:06:22;3.33;;;2.90;;
6378;SDS011;3222;48.858;10.128;2023-06-19T07:08:48;2.85;;;2.65;;
6378;SDS011;3222;48.858;10.128;2023-06-19T07:11:14;3.00;;;2.80;;
6378;SDS011;3222;48.858;10.128;2023-06-19T07:13:39;3.45;;;2.50;;
6378;SDS011;3222;48.858;10.128;2023-06-19T07:16:06;2.60;;;2.40;;
6378;SDS011;3222;48.858;10.128;2023-06-19T07:18:32;2.75;;;2.55;;
6378;SDS011;3222;48.858;10.128;2023-06-19T07:21:00;2.80;;;2.60;;
6378;SDS011;3222;48.858;10.128;2023-06-19T07:23:27;2.90;;;2.60;;
6378;SDS011;3222;48.858;10.128;2023-06-19T07:25:53;2.63;;;2.38;;
6378;SDS011;3222;48.858;10.128;2023-06-19T07:28:19;2.40;;;2.30;;
6378;SDS011;3222;48.858;10.128;2023-06-19T07:30:45;2.55;;;2.10;;
6378;SDS011;3222;48.858;10.128;2023-06-19T07:33:12;2.90;;;2.70;;
6378;SDS011;3222;48.858;10.128;2023-06-19T07:35:38;2.97;;;2.70;;
6378;SDS011;3222;48.858;10.128;2023-06-19T07:38:04;3.15;;;2.40;;
6378;SDS011;3222;48.858;10.128;2023-06-19T07:40:29;2.70;;;2.50;;
6378;SDS011;3222;48.858;10.128;2023-06-19T07:42:55;2.80;;;2.60;;
6378;SDS011;3222;48.858;10.128;2023-06-19T07:45:21;2.20;;;2.10;;
6378;SDS011;3222;48.858;10.128;2023-06-19T07:47:55;2.95;;;2.67;;
6378;SDS011;3222;48.858;10.128;2023-06-19T07:50:21;7.63;;;2.92;;
6378;SDS011;3222;48.858;10.128;2023-06-19T07:52:47;2.72;;;2.53;;
6378;SDS011;3222;48.858;10.128;2023-06-19T07:55:12;3.65;;;2.42;;
6378;SDS011;3222;48.858;10.128;2023-06-19T07:57:38;3.20;;;2.25;;
6378;SDS011;3222;48.858;10.128;2023-06-19T08:00:04;3.35;;;2.10;;
6378;SDS011;3222;48.858;10.128;2023-06-19T08:02:37;2.47;;;2.25;;
6378;SDS011;3222;48.858;10.128;2023-06-19T08:05:03;2.70;;;2.47;;
6378;SDS011;3222;48.858;10.128;2023-06-19T08:07:28;3.03;;;2.30;;
6378;SDS011;3222;48.858;10.128;2023-06-19T08:09:54;2.20;;;2.00;;
6378;SDS011;3222;48.858;10.128;2023-06-19T08:12:20;2.00;;;1.90;;
6378;SDS011;3222;48.858;10.128;2023-06-19T08:14:46;3.00;;;2.70;;
6378;SDS011;3222;48.858;10.128;2023-06-19T08:17:11;3.95;;;2.75;;
6378;SDS011;3222;48.858;10.128;2023-06-19T08:19:37;2.60;;;2.40;;
6378;SDS011;3222;48.858;10.128;2023-06-19T08:22:04;3.38;;;2.00;;
6378;SDS011;3222;48.858;10.128;2023-06-19T08:24:30;2.22;;;2.13;;
6378;SDS011;3222;48.858;10.128;2023-06-19T08:26:56;1.80;;;1.70;;
6378;SDS011;3222;48.858;10.128;2023-06-19T08:29:22;2.88;;;2.15;;
6378;SDS011;3222;48.858;10.128;2023-06-19T08:31:48;1.77;;;1.67;;
6378;SDS011;3222;48.858;10.128;2023-06-19T08:34:14;1.88;;;1.77;;
6378;SDS011;3222;48.858;10.128;2023-06-19T08:36:40;1.90;;;1.80;;
6378;SDS011;3222;48.858;10.128;2023-06-19T08:39:05;2.28;;;2.08;;
6378;SDS011;3222;48.858;10.128;2023-06-19T08:41:33;1.98;;;1.80;;
6378;SDS011;3222;48.858;10.128;2023-06-19T08:44:00;1.67;;;1.60;;
6378;SDS011;3222;48.858;10.128;2023-06-19T08:46:25;1.77;;;1.67;;
6378;SDS011;3222;48.858;10.128;2023-06-19T08:48:54;2.28;;;1.85;;
6378;SDS011;3222;48.858;10.128;2023-06-19T08:51:20;2.17;;;1.90;;
6378;SDS011;3222;48.858;10.128;2023-06-19T08:53:47;2.20;;;2.10;;
6378;SDS011;3222;48.858;10.128;2023-06-19T08:56:17;2.72;;;2.53;;
6378;SDS011;3222;48.858;10.128;2023-06-19T08:58:42;4.20;;;2.47;;
6378;SDS011;3222;48.858;10.128;2023-06-19T09:01:08;2.90;;;2.33;;
6378;SDS011;3222;48.858;10.128;2023-06-19T09:03:34;3.95;;;2.10;;
6378;SDS011;3222;48.858;10.128;2023-06-19T09:06:03;2.05;;;1.95;;
6378;SDS011;3222;48.858;10.128;2023-06-19T09:08:31;2.22;;;2.08;;
6378;SDS011;3222;48.858;10.128;2023-06-19T09:10:58;2.35;;;2.15;;
6378;SDS011;3222;48.858;10.128;2023-06-19T09:13:24;2.50;;;2.30;;
6378;SDS011;3222;48.858;10.128;2023-06-19T09:15:57;2.60;;;2.40;;
6378;SDS011;3222;48.858;10.128;2023-06-19T09:18:28;2.20;;;2.00;;
6378;SDS011;3222;48.858;10.128;2023-06-19T09:20:55;1.80;;;1.70;;
6378;SDS011;3222;48.858;10.128;2023-06-19T09:23:22;2.05;;;1.60;;
6378;SDS011;3222;48.858;10.128;2023-06-19T09:25:52;3.55;;;1.60;;
6378;SDS011;3222;48.858;10.128;2023-06-19T09:28:26;1.75;;;1.65;;
6378;SDS011;3222;48.858;10.128;2023-06-19T09:33:26;1.80;;;1.70;;
6378;SDS011;3222;48.858;10.128;2023-06-19T09:35:57;2.80;;;1.55;;
6378;SDS011;3222;48.858;10.128;2023-06-19T09:38:24;1.67;;;1.58;;
6378;SDS011;3222;48.858;10.128;2023-06-19T09:40:55;1.85;;;1.70;;
6378;SDS011;3222;48.858;10.128;2023-06-19T09:43:30;1.67;;;1.58;;
6378;SDS011;3222;48.858;10.128;2023-06-19T09:46:02;1.50;;;1.40;;
6378;SDS011;3222;48.858;10.128;2023-06-19T09:48:29;2.05;;;1.73;;
6378;SDS011;3222;48.858;10.128;2023-06-19T09:50:59;3.65;;;1.75;;
6378;SDS011;3222;48.858;10.128;2023-06-19T09:53:26;1.70;;;1.60;;
6378;SDS011;3222;48.858;10.128;2023-06-19T09:55:52;1.80;;;1.70;;
6378;SDS011;3222;48.858;10.128;2023-06-19T09:58:18;2.00;;;1.77;;
6378;SDS011;3222;48.858;10.128;2023-06-19T10:00:45;2.38;;;1.65;;
6378;SDS011;3222;48.858;10.128;2023-06-19T10:03:12;1.92;;;1.83;;
6378;SDS011;3222;48.858;10.128;2023-06-19T10:05:39;1.55;;;1.45;;
6378;SDS011;3222;48.858;10.128;2023-06-19T10:08:08;2.40;;;1.60;;
6378;SDS011;3222;48.858;10.128;2023-06-19T10:10:34;1.60;;;1.50;;
6378;SDS011;3222;48.858;10.128;2023-06-19T10:13:35;3.70;;;1.30;;
6378;SDS011;3222;48.858;10.128;2023-06-19T10:15:56;1.73;;;1.63;;
6378;SDS011;3222;48.858;10.128;2023-06-19T10:18:22;2.30;;;2.08;;
6378;SDS011;3222;48.858;10.128;2023-06-19T10:20:50;2.05;;;1.95;;
6378;SDS011;3222;48.858;10.128;2023-06-19T10:23:16;1.90;;;1.80;;
6378;SDS011;3222;48.858;10.128;2023-06-19T10:25:44;1.77;;;1.67;;
6378;SDS011;3222;48.858;10.128;2023-06-19T10:28:18;1.60;;;1.50;;
6378;SDS011;3222;48.858;10.128;2023-06-19T10:31:07;1.60;;;1.50;;
6378;SDS011;3222;48.858;10.128;2023-06-19T10:33:36;1.83;;;1.50;;
6378;SDS011;3222;48.858;10.128;2023-06-19T10:36:17;1.52;;;1.42;;
6378;SDS011;3222;48.858;10.128;2023-06-19T10:38:45;2.85;;;1.50;;
6378;SDS011;3222;48.858;10.128;2023-06-19T10:41:24;1.50;;;1.40;;
6378;SDS011;3222;48.858;10.128;2023-06-19T10:46:23;1.90;;;1.80;;
6378;SDS011;3222;48.858;10.128;2023-06-19T10:48:50;2.35;;;1.65;;
6378;SDS011;3222;48.858;10.128;2023-06-19T10:51:19;2.92;;;1.80;;
6378;SDS011;3222;48.858;10.128;2023-06-19T10:53:45;2.13;;;1.98;;
6378;SDS011;3222;48.858;10.128;2023-06-19T10:56:11;2.47;;;2.28;;
6378;SDS011;3222;48.858;10.128;2023-06-19T10:58:36;2.25;;;2.15;;
6378;SDS011;3222;48.858;10.128;2023-06-19T11:01:02;2.10;;;2.00;;
6378;SDS011;3222;48.858;10.128;2023-06-19T11:03:28;2.20;;;2.10;;
6378;SDS011;3222;48.858;10.128;2023-06-19T11:05:57;2.05;;;1.95;;
6378;SDS011;3222;48.858;10.128;2023-06-19T11:08:23;2.08;;;1.98;;
6378;SDS011;3222;48.858;10.128;2023-06-19T11:10:50;2.00;;;1.90;;
6378;SDS011;3222;48.858;10.128;2023-06-19T11:13:16;2.00;;;1.90;;
6378;SDS011;3222;48.858;10.128;2023-06-19T11:15:43;2.97;;;1.90;;
6378;SDS011;3222;48.858;10.128;2023-06-19T11:18:09;2.38;;;1.92;;
6378;SDS011;3222;48.858;10.128;2023-06-19T11:20:45;1.80;;;1.70;;
6378;SDS011;3222;48.858;10.128;2023-06-19T11:23:25;2.20;;;2.00;;
6378;SDS011;3222;48.858;10.128;2023-06-19T11:26:01;1.80;;;1.70;;
6378;SDS011;3222;48.858;10.128;2023-06-19T11:28:31;2.35;;;2.13;;
6378;SDS011;3222;48.858;10.128;2023-06-19T11:30:58;1.70;;;1.60;;
6378;SDS011;3222;48.858;10.128;2023-06-19T11:33:25;1.80;;;1.70;;
6378;SDS011;3222;48.858;10.128;2023-06-19T11:35:51;2.00;;;1.70;;
6378;SDS011;3222;48.858;10.128;2023-06-19T11:38:23;1.75;;;1.65;;
6378;SDS011;3222;48.858;10.128;2023-06-19T11:40:49;1.88;;;1.75;;
6378;SDS011;3222;48.858;10.128;2023-06-19T11:43:30;1.88;;;1.73;;
6378;SDS011;3222;48.858;10.128;2023-06-19T11:46:03;2.00;;;1.80;;
6378;SDS011;3222;48.858;10.128;2023-06-19T11:48:38;1.70;;;1.60;;
6378;SDS011;3222;48.858;10.128;2023-06-19T11:51:04;1.83;;;1.73;;
6378;SDS011;3222;48.858;10.128;2023-06-19T11:53:30;1.60;;;1.50;;
6378;SDS011;3222;48.858;10.128;2023-06-19T11:55:55;1.95;;;1.65;;
6378;SDS011;3222;48.858;10.128;2023-06-19T11:58:21;2.88;;;1.70;;
6378;SDS011;3222;48.858;10.128;2023-06-19T12:00:47;2.70;;;1.50;;
6378;SDS011;3222;48.858;10.128;2023-06-19T12:03:14;2.38;;;1.48;;
6378;SDS011;3222;48.858;10.128;2023-06-19T12:05:40;1.70;;;1.60;;
6378;SDS011;3222;48.858;10.128;2023-06-19T12:08:06;1.60;;;1.50;;
6378;SDS011;3222;48.858;10.128;2023-06-19T12:10:32;1.70;;;1.60;;
6378;SDS011;3222;48.858;10.128;2023-06-19T12:12:59;1.73;;;1.63;;
6378;SDS011;3222;48.858;10.128;2023-06-19T12:15:24;1.27;;;1.27;;
6378;SDS011;3222;48.858;10.128;2023-06-19T12:17:50;1.40;;;1.30;;
6378;SDS011;3222;48.858;10.128;2023-06-19T12:20:17;1.67;;;1.58;;
6378;SDS011;3222;48.858;10.128;2023-06-19T12:22:43;1.50;;;1.40;;
6378;SDS011;3222;48.858;10.128;2023-06-19T12:25:08;1.40;;;1.30;;
6378;SDS011;3222;48.858;10.128;2023-06-19T12:27:35;1.65;;;1.55;;
6378;SDS011;3222;48.858;10.128;2023-06-19T12:30:03;2.30;;;2.10;;
6378;SDS011;3222;48.858;10.128;2023-06-19T12:32:29;1.83;;;1.63;;
6378;SDS011;3222;48.858;10.128;2023-06-19T12:34:54;1.98;;;1.88;;
6378;SDS011;3222;48.858;10.128;2023-06-19T12:37:20;1.42;;;1.33;;
6378;SDS011;3222;48.858;10.128;2023-06-19T12:39:47;1.70;;;1.60;;
6378;SDS011;3222;48.858;10.128;2023-06-19T12:42:14;2.20;;;1.85;;
6378;SDS011;3222;48.858;10.128;2023-06-19T12:44:40;1.80;;;1.70;;
6378;SDS011;3222;48.858;10.128;2023-06-19T12:47:06;1.70;;;1.60;;
6378;SDS011;3222;48.858;10.128;2023-06-19T12:49:33;1.63;;;1.52;;
6378;SDS011;3222;48.858;10.128;2023-06-19T12:51:58;1.50;;;1.40;;
6378;SDS011;3222;48.858;10.128;2023-06-19T12:54:25;1.60;;;1.50;;
6378;SDS011;3222;48.858;10.128;2023-06-19T12:56:51;1.55;;;1.27;;
6378;SDS011;3222;48.858;10.128;2023-06-19T12:59:17;1.85;;;1.75;;
6378;SDS011;3222;48.858;10.128;2023-06-19T13:01:43;2.25;;;1.70;;
6378;SDS011;3222;48.858;10.128;2023-06-19T13:04:09;1.70;;;1.60;;
6378;SDS011;3222;48.858;10.128;2023-06-19T13:06:37;1.90;;;1.80;;
6378;SDS011;3222;48.858;10.128;2023-06-19T13:09:05;2.03;;;1.85;;
6378;SDS011;3222;48.858;10.128;2023-06-19T13:11:31;1.50;;;1.40;;
6378;SDS011;3222;48.858;10.128;2023-06-19T13:13:59;2.20;;;1.40;;
6378;SDS011;3222;48.858;10.128;2023-06-19T13:16:28;1.77;;;1.67;;
6378;SDS011;3222;48.858;10.128;2023-06-19T13:18:56;1.50;;;1.40;;
6378;SDS011;3222;48.858;10.128;2023-06-19T13:21:22;1.33;;;1.33;;
6378;SDS011;3222;48.858;10.128;2023-06-19T13:23:48;2.22;;;1.80;;
6378;SDS011;3222;48.858;10.128;2023-06-19T13:26:14;3.05;;;1.73;;
6378;SDS011;3222;48.858;10.128;2023-06-19T13:28:40;2.35;;;1.73;;
6378;SDS011;3222;48.858;10.128;2023-06-19T13:31:05;1.80;;;1.70;;
6378;SDS011;3222;48.858;10.128;2023-06-19T13:33:31;2.75;;;1.52;;
6378;SDS011;3222;48.858;10.128;2023-06-19T13:35:57;1.92;;;1.77;;
6378;SDS011;3222;48.858;10.128;2023-06-19T13:38:22;1.73;;;1.63;;
6378;SDS011;3222;48.858;10.128;2023-06-19T13:40:48;2.33;;;1.70;;
6378;SDS011;3222;48.858;10.128;2023-06-19T13:43:15;1.70;;;1.60;;
6378;SDS011;3222;48.858;10.128;2023-06-19T13:45:41;2.35;;;1.65;;
6378;SDS011;3222;48.858;10.128;2023-06-19T13:48:07;3.97;;;1.80;;
6378;SDS011;3222;48.858;10.128;2023-06-19T13:50:33;1.55;;;1.52;;
6378;SDS011;3222;48.858;10.128;2023-06-19T13:52:59;2.03;;;1.73;;
6378;SDS011;3222;48.858;10.128;2023-06-19T13:55:26;2.08;;;1.88;;
6378;SDS011;3222;48.858;10.128;2023-06-19T13:57:51;2.58;;;1.70;;
6378;SDS011;3222;48.858;10.128;2023-06-19T14:00:17;1.70;;;1.60;;
6378;SDS011;3222;48.858;10.128;2023-06-19T14:02:44;4.05;;;1.77;;
6378;SDS011;3222;48.858;10.128;2023-06-19T14:05:10;1.92;;;1.73;;
6378;SDS011;3222;48.858;10.128;2023-06-19T14:07:35;2.08;;;1.98;;
6378;SDS011;3222;48.858;10.128;2023-06-19T14:10:02;1.92;;;1.83;;
6378;SDS011;3222;48.858;10.128;2023-06-19T14:12:30;1.95;;;1.60;;
6378;SDS011;3222;48.858;10.128;2023-06-19T14:14:56;1.83;;;1.73;;
6378;SDS011;3222;48.858;10.128;2023-06-19T14:17:22;1.52;;;1.42;;
6378;SDS011;3222;48.858;10.128;2023-06-19T14:19:48;1.70;;;1.65;;
6378;SDS011;3222;48.858;10.128;2023-06-19T14:22:18;2.55;;;1.80;;
6378;SDS011;3222;48.858;10.128;2023-06-19T14:24:44;1.90;;;1.60;;
6378;SDS011;3222;48.858;10.128;2023-06-19T14:27:10;1.85;;;1.70;;
6378;SDS011;3222;48.858;10.128;2023-06-19T14:29:35;1.50;;;1.40;;
6378;SDS011;3222;48.858;10.128;2023-06-19T14:32:01;1.30;;;1.30;;
6378;SDS011;3222;48.858;10.128;2023-06-19T14:34:27;1.67;;;1.50;;
6378;SDS011;3222;48.858;10.128;2023-06-19T14:36:53;1.98;;;1.70;;
6378;SDS011;3222;48.858;10.128;2023-06-19T14:39:19;2.30;;;1.60;;
6378;SDS011;3222;48.858;10.128;2023-06-19T14:41:45;2.80;;;1.52;;
6378;SDS011;3222;48.858;10.128;2023-06-19T14:44:11;2.15;;;1.60;;
6378;SDS011;3222;48.858;10.128;2023-06-19T14:46:37;1.55;;;1.45;;
6378;SDS011;3222;48.858;10.128;2023-06-19T14:49:06;2.70;;;1.67;;
6378;SDS011;3222;48.858;10.128;2023-06-19T14:51:32;1.77;;;1.65;;
6378;SDS011;3222;48.858;10.128;2023-06-19T14:53:58;2.25;;;2.13;;
6378;SDS011;3222;48.858;10.128;2023-06-19T14:56:24;6.13;;;1.67;;
6378;SDS011;3222;48.858;10.128;2023-06-19T14:58:49;1.70;;;1.60;;
6378;SDS011;3222;48.858;10.128;2023-06-19T15:01:15;1.60;;;1.50;;
6378;SDS011;3222;48.858;10.128;2023-06-19T15:03:42;1.60;;;1.50;;